Time;durP1;ratioP1;P1;durP2;ratioP2;P2;SDS_P1;SDS_P2;PMS_P1;PMS_P2;Temp;Humidity;BMP_temperature;BMP_pressure;BME280_temperature;BME280_humidity;BME280_pressure;Samples;Min_cycle;Max_cycle;Signal;HPM_P1;HPM_P2
2023/08/11 00:00:27;;;;;;;1.57;1.00;;;17.00;99.90;;;;;;5115806;28;20439;-79
2023/08/11 00:02:54;;;;;;;1.60;1.20;;;16.90;99.90;;;;;;5115532;28;20560;-79
2023/08/11 00:05:22;;;;;;;2.07;1.30;;;17.00;99.90;;;;;;5115815;27;20451;-79
2023/08/11 00:07:50;;;;;;;1.03;0.93;;;16.90;99.90;;;;;;5115844;28;20504;-79
2023/08/11 00:10:17;;;;;;;2.43;1.17;;;16.80;99.90;;;;;;5115733;28;20505;-79
2023/08/11 00:12:45;;;;;;;1.10;1.00;;;16.80;99.90;;;;;;5115736;28;20439;-79
2023/08/11 00:15:13;;;;;;;1.03;1.03;;;16.80;99.90;;;;;;5115148;28;20548;-79
2023/08/11 00:17:40;;;;;;;1.93;1.10;;;16.80;99.90;;;;;;5115301;28;20504;-79
2023/08/11 00:20:08;;;;;;;3.37;1.50;;;16.80;99.90;;;;;;5115533;28;20475;-79
2023/08/11 00:22:37;;;;;;;1.10;1.00;;;16.80;99.90;;;;;;5115489;28;20451;-79
2023/08/11 00:25:04;;;;;;;1.20;1.10;;;16.80;99.90;;;;;;5115007;28;20473;-79
2023/08/11 00:27:31;;;;;;;0.97;0.97;;;16.70;99.90;;;;;;5115084;28;20454;-79
2023/08/11 00:29:58;;;;;;;1.67;1.40;;;16.70;99.90;;;;;;5115042;28;20835;-79
2023/08/11 00:32:24;;;;;;;2.30;2.07;;;16.70;99.90;;;;;;5115268;27;20500;-79
2023/08/11 00:34:52;;;;;;;1.60;1.50;;;16.70;99.90;;;;;;5114747;28;21002;-79
2023/08/11 00:37:18;;;;;;;1.10;0.90;;;16.70;99.90;;;;;;5115487;28;20443;-80
2023/08/11 00:39:46;;;;;;;2.30;1.40;;;16.70;99.90;;;;;;5115164;28;20447;-79
2023/08/11 00:42:13;;;;;;;1.43;1.33;;;16.70;99.90;;;;;;5115087;28;20443;-79
2023/08/11 00:44:41;;;;;;;1.93;1.20;;;16.70;99.90;;;;;;5114936;28;20451;-79
2023/08/11 00:47:08;;;;;;;1.33;1.20;;;16.60;99.90;;;;;;5114983;28;20451;-79
2023/08/11 00:49:35;;;;;;;3.13;1.13;;;16.60;99.90;;;;;;5114913;28;20443;-79
2023/08/11 00:52:03;;;;;;;1.00;0.90;;;16.50;99.90;;;;;;5114578;28;20935;-80
2023/08/11 00:54:30;;;;;;;1.30;1.13;;;16.50;99.90;;;;;;5114670;28;20492;-79
2023/08/11 00:56:58;;;;;;;1.97;1.40;;;16.50;99.90;;;;;;5114879;28;20451;-79
2023/08/11 00:59:26;;;;;;;1.70;1.60;;;16.50;99.90;;;;;;5114761;28;20448;-79
2023/08/11 01:01:53;;;;;;;1.63;1.20;;;16.50;99.90;;;;;;5114740;28;20431;-79
2023/08/11 01:04:21;;;;;;;1.80;1.57;;;16.40;99.90;;;;;;5114618;28;20470;-79
2023/08/11 01:06:53;;;;;;;2.77;1.83;;;16.40;99.90;;;;;;5114636;28;20446;-79
2023/08/11 01:09:28;;;;;;;1.83;0.97;;;16.40;99.90;;;;;;5114612;28;20842;-79
2023/08/11 01:12:12;;;;;;;1.20;1.20;;;16.30;99.90;;;;;;5113754;28;20904;-79
2023/08/11 01:14:48;;;;;;;1.30;1.20;;;16.30;99.90;;;;;;5114336;28;20486;-79
2023/08/11 01:17:16;;;;;;;1.70;1.20;;;16.30;99.90;;;;;;5114488;28;20426;-79
2023/08/11 01:19:43;;;;;;;5.90;1.40;;;16.20;99.90;;;;;;5114353;28;20439;-79
2023/08/11 01:22:15;;;;;;;1.43;1.13;;;16.10;99.90;;;;;;5114026;28;20967;-79
2023/08/11 01:24:44;;;;;;;1.40;1.30;;;16.20;99.90;;;;;;5114252;28;20536;-79
2023/08/11 01:27:12;;;;;;;1.93;1.50;;;16.30;99.90;;;;;;5113927;28;20860;-79
2023/08/11 01:29:40;;;;;;;1.97;1.17;;;16.10;99.90;;;;;;5114207;28;20443;-79
2023/08/11 01:32:08;;;;;;;3.57;1.30;;;16.10;99.90;;;;;;5114173;28;20443;-79
2023/08/11 01:34:34;;;;;;;1.37;1.10;;;16.10;99.90;;;;;;5113965;28;20491;-79
2023/08/11 01:37:01;;;;;;;3.57;1.50;;;16.00;99.90;;;;;;5113768;28;20435;-79
2023/08/11 01:39:28;;;;;;;1.43;1.40;;;16.00;99.90;;;;;;5114094;28;20567;-79
2023/08/11 01:41:57;;;;;;;4.23;1.90;;;16.00;99.90;;;;;;5114089;28;20443;-79
2023/08/11 01:44:25;;;;;;;4.23;1.00;;;16.00;99.90;;;;;;5113625;28;20988;-79
2023/08/11 01:46:55;;;;;;;0.80;0.80;;;15.90;99.90;;;;;;5113956;28;20447;-79
2023/08/11 01:49:23;;;;;;;0.90;0.90;;;15.90;99.90;;;;;;5113980;28;20443;-79
2023/08/11 01:51:50;;;;;;;2.20;1.43;;;15.90;99.90;;;;;;5113919;28;20439;-79
2023/08/11 01:54:17;;;;;;;1.17;1.07;;;15.90;99.90;;;;;;5113858;28;20486;-79
2023/08/11 01:56:45;;;;;;;3.40;1.37;;;15.90;99.90;;;;;;5113845;28;20489;-79
2023/08/11 01:59:15;;;;;;;4.40;1.77;;;15.90;99.90;;;;;;5113864;28;20496;-79
2023/08/11 02:01:43;;;;;;;1.80;1.30;;;15.80;99.90;;;;;;5113523;28;20997;-79
2023/08/11 02:04:10;;;;;;;0.93;0.80;;;15.80;99.90;;;;;;5113293;28;20532;-79
2023/08/11 02:06:39;;;;;;;1.57;1.10;;;15.80;99.90;;;;;;5113451;28;20435;-79
2023/08/11 02:09:08;;;;;;;2.60;1.73;;;15.80;99.90;;;;;;5113761;28;20450;-79
2023/08/11 02:11:36;;;;;;;2.97;1.80;;;15.70;99.90;;;;;;5113730;28;20443;-79
2023/08/11 02:14:03;;;;;;;1.93;1.80;;;15.80;99.90;;;;;;5113308;28;20959;-79
2023/08/11 02:16:31;;;;;;;1.00;1.00;;;15.80;99.90;;;;;;5113597;28;20482;-79
2023/08/11 02:18:58;;;;;;;4.97;2.07;;;15.80;99.90;;;;;;5113638;28;20462;-79
2023/08/11 02:21:27;;;;;;;2.10;1.17;;;15.70;99.90;;;;;;5113593;28;20458;-80
2023/08/11 02:23:54;;;;;;;2.70;1.57;;;15.70;99.90;;;;;;5113692;28;20839;-79
2023/08/11 02:26:22;;;;;;;2.70;1.87;;;15.70;99.90;;;;;;5117753;27;20469;-79
2023/08/11 02:28:49;;;;;;;1.40;1.03;;;15.80;99.90;;;;;;5117390;28;20819;-79
2023/08/11 02:31:17;;;;;;;1.37;1.27;;;15.80;99.90;;;;;;5117740;28;20443;-79
2023/08/11 02:33:46;;;;;;;2.17;1.27;;;15.80;99.90;;;;;;5117551;28;20446;-79
2023/08/11 02:36:13;;;;;;;1.47;1.27;;;15.70;99.90;;;;;;5117430;28;20489;-79
2023/08/11 02:38:40;;;;;;;1.57;1.23;;;15.70;99.90;;;;;;5117500;28;20438;-79
2023/08/11 02:41:07;;;;;;;1.43;1.33;;;15.70;99.90;;;;;;5117460;28;20447;-79
2023/08/11 02:43:36;;;;;;;1.10;0.93;;;15.70;99.90;;;;;;5117327;28;20439;-79
2023/08/11 02:46:04;;;;;;;1.30;1.20;;;15.70;99.90;;;;;;5117046;28;21048;-79
2023/08/11 02:48:30;;;;;;;1.43;1.13;;;15.70;99.90;;;;;;5117323;28;20533;-80
2023/08/11 02:50:58;;;;;;;1.40;1.30;;;15.60;99.90;;;;;;5117254;28;20439;-79
2023/08/11 02:53:25;;;;;;;1.43;1.33;;;15.60;99.90;;;;;;5117239;28;20447;-79
2023/08/11 02:55:52;;;;;;;1.60;1.30;;;15.60;99.90;;;;;;5116752;28;20991;-79
2023/08/11 02:58:19;;;;;;;1.20;1.00;;;15.60;99.90;;;;;;5116830;27;20447;-79
2023/08/11 03:00:47;;;;;;;1.40;1.30;;;15.50;99.90;;;;;;5117101;28;20450;-79
2023/08/11 03:03:14;;;;;;;2.00;1.10;;;15.50;99.90;;;;;;5116570;28;20581;-79
2023/08/11 03:05:42;;;;;;;1.27;0.90;;;15.60;99.90;;;;;;5116857;28;20470;-79
2023/08/11 03:08:11;;;;;;;3.40;1.50;;;15.50;99.90;;;;;;5116669;28;20439;-79
2023/08/11 03:10:37;;;;;;;1.10;1.00;;;15.50;99.90;;;;;;5116578;27;20447;-79
2023/08/11 03:13:04;;;;;;;1.73;1.07;;;15.50;99.90;;;;;;5116870;28;20454;-79
2023/08/11 03:15:31;;;;;;;4.23;1.87;;;15.50;99.90;;;;;;5116621;27;20501;-79
2023/08/11 03:17:58;;;;;;;1.00;1.00;;;15.40;99.90;;;;;;5116614;27;20831;-79
2023/08/11 03:20:25;;;;;;;1.03;0.90;;;15.30;99.90;;;;;;5116676;28;20443;-79
2023/08/11 03:22:52;;;;;;;1.83;1.17;;;15.40;99.90;;;;;;5116426;28;20971;-79
2023/08/11 03:25:20;;;;;;;2.70;1.10;;;15.40;99.90;;;;;;5116581;28;20461;-79
2023/08/11 03:27:47;;;;;;;1.60;1.50;;;15.40;99.90;;;;;;5116582;28;20435;-79
2023/08/11 03:30:14;;;;;;;1.20;1.10;;;15.40;99.90;;;;;;5116517;27;20470;-79
2023/08/11 03:32:41;;;;;;;1.40;1.30;;;15.40;99.90;;;;;;5116451;28;20475;-79
2023/08/11 03:35:09;;;;;;;3.10;1.77;;;15.40;99.90;;;;;;5115768;28;20463;-79
2023/08/11 03:37:36;;;;;;;2.10;1.70;;;15.30;99.90;;;;;;5116362;28;20443;-79
2023/08/11 03:40:05;;;;;;;1.23;0.93;;;15.30;99.90;;;;;;5116323;28;20435;-79
2023/08/11 03:42:34;;;;;;;1.47;1.27;;;15.30;99.90;;;;;;5116314;28;20784;-79
2023/08/11 03:45:00;;;;;;;2.17;1.23;;;15.30;99.90;;;;;;5116171;27;20470;-79
2023/08/11 03:47:27;;;;;;;1.03;1.03;;;15.30;99.90;;;;;;5116238;28;20480;-79
2023/08/11 03:49:54;;;;;;;1.40;0.93;;;15.20;99.90;;;;;;5116143;28;20451;-79
2023/08/11 03:52:21;;;;;;;2.07;1.97;;;15.20;99.90;;;;;;5115866;27;20527;-79
2023/08/11 03:54:48;;;;;;;3.70;1.20;;;15.20;99.90;;;;;;5116010;28;20466;-79
2023/08/11 03:57:15;;;;;;;1.00;0.90;;;15.20;99.90;;;;;;5115914;28;20483;-79
2023/08/11 03:59:43;;;;;;;1.87;1.00;;;15.20;99.90;;;;;;5115965;28;20439;-79
2023/08/11 04:02:09;;;;;;;2.37;1.43;;;15.20;99.90;;;;;;5116462;28;20435;-80
2023/08/11 04:04:37;;;;;;;0.90;0.90;;;15.20;99.90;;;;;;5116132;28;20455;-79
2023/08/11 04:07:05;;;;;;;7.30;1.00;;;15.20;99.90;;;;;;5115813;27;20479;-80
2023/08/11 04:09:34;;;;;;;1.73;1.23;;;15.20;99.90;;;;;;5115792;28;20443;-79
2023/08/11 04:12:00;;;;;;;1.37;1.17;;;15.20;99.90;;;;;;5115418;28;20935;-79
2023/08/11 04:14:27;;;;;;;1.50;1.40;;;15.20;99.90;;;;;;5115334;28;20451;-79
2023/08/11 04:16:55;;;;;;;1.33;1.23;;;15.20;99.90;;;;;;5115593;28;20482;-80
2023/08/11 04:19:22;;;;;;;1.70;1.23;;;15.30;99.90;;;;;;5115570;28;20443;-79
2023/08/11 04:21:48;;;;;;;1.07;1.07;;;15.20;99.90;;;;;;5115200;28;20447;-79
2023/08/11 04:24:17;;;;;;;1.67;1.20;;;15.20;99.90;;;;;;5115415;27;20466;-80
2023/08/11 04:26:44;;;;;;;2.10;1.17;;;15.20;99.90;;;;;;5115399;28;20444;-79
2023/08/11 04:29:12;;;;;;;1.13;1.10;;;15.20;99.90;;;;;;5115350;28;20443;-79
2023/08/11 04:31:40;;;;;;;0.87;0.87;;;15.20;99.90;;;;;;5115319;28;20492;-79
2023/08/11 04:34:08;;;;;;;0.90;0.70;;;15.20;99.90;;;;;;5115172;28;20466;-79
2023/08/11 04:36:34;;;;;;;1.30;0.90;;;15.20;99.90;;;;;;5115154;28;20474;-80
2023/08/11 04:39:01;;;;;;;3.43;1.93;;;15.30;99.90;;;;;;5115042;27;20443;-79
2023/08/11 04:41:28;;;;;;;1.20;1.10;;;15.30;99.90;;;;;;5115154;28;20438;-80
2023/08/11 04:43:55;;;;;;;1.40;1.30;;;15.30;99.90;;;;;;5115622;28;20461;-79
2023/08/11 04:46:22;;;;;;;1.90;1.80;;;15.30;99.90;;;;;;5115422;27;20451;-79
2023/08/11 04:48:48;;;;;;;1.47;1.10;;;15.40;99.90;;;;;;5114226;28;20447;-80
2023/08/11 04:51:16;;;;;;;1.70;1.30;;;15.50;99.90;;;;;;5114932;28;20443;-80
2023/08/11 04:53:43;;;;;;;1.47;1.10;;;15.50;99.90;;;;;;5114863;28;20479;-79
2023/08/11 04:56:10;;;;;;;1.80;1.17;;;15.60;99.90;;;;;;5114444;28;20999;-79
2023/08/11 04:58:38;;;;;;;1.67;1.10;;;15.60;99.90;;;;;;5114822;28;20550;-79
2023/08/11 05:01:05;;;;;;;3.10;1.53;;;15.70;99.90;;;;;;5114797;28;20447;-79
2023/08/11 05:03:32;;;;;;;1.53;1.00;;;15.70;99.90;;;;;;5114297;28;20524;-80
2023/08/11 05:05:59;;;;;;;2.00;1.47;;;15.80;99.90;;;;;;5114663;28;20447;-79
2023/08/11 05:08:27;;;;;;;3.43;1.27;;;15.80;99.90;;;;;;5114306;28;20944;-80
2023/08/11 05:10:53;;;;;;;3.90;2.07;;;15.90;99.90;;;;;;5114551;28;20439;-79
2023/08/11 05:13:21;;;;;;;1.23;1.23;;;15.90;99.90;;;;;;5114508;27;20446;-79
2023/08/11 05:15:47;;;;;;;1.13;1.03;;;16.00;99.90;;;;;;5114364;28;20597;-80
2023/08/11 05:18:14;;;;;;;2.33;1.23;;;16.00;99.90;;;;;;5114131;28;20959;-79
2023/08/11 05:20:41;;;;;;;1.20;1.10;;;16.10;99.90;;;;;;5114069;28;20956;-80
2023/08/11 05:23:08;;;;;;;2.43;1.63;;;16.10;99.90;;;;;;5114341;28;20446;-79
2023/08/11 05:25:36;;;;;;;2.07;1.77;;;16.10;99.90;;;;;;5113802;28;20459;-79
2023/08/11 05:28:03;;;;;;;1.10;1.10;;;16.20;99.90;;;;;;5114212;28;20443;-80
2023/08/11 05:30:30;;;;;;;0.80;0.80;;;16.20;99.90;;;;;;5114254;28;20435;-80
2023/08/11 05:32:57;;;;;;;1.07;1.00;;;16.30;99.90;;;;;;5113863;28;20510;-79
2023/08/11 05:35:24;;;;;;;1.33;1.23;;;16.20;99.90;;;;;;5114087;28;20451;-80
2023/08/11 05:37:50;;;;;;;2.60;1.63;;;16.30;99.90;;;;;;5113752;28;20482;-80
2023/08/11 05:40:17;;;;;;;2.37;1.73;;;16.30;99.90;;;;;;5113818;28;20443;-80
2023/08/11 05:42:45;;;;;;;2.03;1.40;;;16.40;99.90;;;;;;5114067;28;20439;-79
2023/08/11 05:45:12;;;;;;;1.43;1.27;;;16.40;99.90;;;;;;5113994;28;20465;-79
2023/08/11 05:47:39;;;;;;;2.07;1.10;;;16.50;99.90;;;;;;5113992;28;20444;-80
2023/08/11 05:50:07;;;;;;;1.23;1.13;;;16.50;99.90;;;;;;5113922;28;20443;-79
2023/08/11 05:52:34;;;;;;;1.03;1.03;;;16.50;99.90;;;;;;5113950;28;20521;-80
2023/08/11 05:55:01;;;;;;;1.90;1.33;;;16.60;99.90;;;;;;5113816;28;20470;-80
2023/08/11 05:57:28;;;;;;;2.73;1.27;;;16.70;99.90;;;;;;5113492;28;21025;-80
2023/08/11 05:59:56;;;;;;;3.20;1.53;;;16.80;99.90;;;;;;5113362;28;20447;-79
2023/08/11 06:02:22;;;;;;;0.97;0.90;;;16.80;99.90;;;;;;5113466;28;20483;-80
2023/08/11 06:04:50;;;;;;;1.07;0.90;;;17.00;99.90;;;;;;5113752;28;20454;-80
2023/08/11 06:07:17;;;;;;;1.60;1.50;;;17.00;99.90;;;;;;5113442;28;20493;-80
2023/08/11 06:09:44;;;;;;;3.13;1.73;;;17.20;99.90;;;;;;5113695;28;20939;-79
2023/08/11 06:12:11;;;;;;;3.67;2.03;;;17.30;99.90;;;;;;5113421;28;20948;-79
2023/08/11 06:14:38;;;;;;;2.50;1.50;;;17.50;99.90;;;;;;5113629;28;20507;-80
2023/08/11 06:17:06;;;;;;;2.37;1.30;;;17.60;99.90;;;;;;5113592;28;20482;-80
2023/08/11 06:19:32;;;;;;;5.73;1.30;;;17.80;99.90;;;;;;5113634;28;20451;-79
2023/08/11 06:22:00;;;;;;;1.30;1.20;;;17.90;99.90;;;;;;5113609;28;20443;-79
2023/08/11 06:24:27;;;;;;;3.37;1.73;;;18.00;99.90;;;;;;5113882;28;20463;-80
2023/08/11 06:26:53;;;;;;;2.20;1.73;;;18.20;99.90;;;;;;5113577;28;20438;-79
2023/08/11 06:29:21;;;;;;;0.90;0.90;;;18.30;99.90;;;;;;5113524;28;20435;-80
2023/08/11 06:31:47;;;;;;;1.60;1.50;;;18.40;99.90;;;;;;5113640;28;20439;-80
2023/08/11 06:34:17;;;;;;;1.70;1.60;;;18.50;99.90;;;;;;5113269;28;20469;-78
2023/08/11 06:36:45;;;;;;;1.63;1.50;;;18.70;99.90;;;;;;5113392;28;20567;-78
2023/08/11 06:39:11;;;;;;;2.10;1.20;;;18.70;99.90;;;;;;5113436;28;20543;-78
2023/08/11 06:41:39;;;;;;;1.53;1.43;;;18.80;99.90;;;;;;5113503;28;20427;-78
2023/08/11 06:44:06;;;;;;;1.80;1.70;;;18.90;99.90;;;;;;5113399;28;20467;-78
2023/08/11 06:46:33;;;;;;;1.43;1.30;;;19.00;99.90;;;;;;5113145;28;20421;-78
2023/08/11 06:49:00;;;;;;;2.87;1.50;;;19.20;99.90;;;;;;5113459;28;20427;-78
2023/08/11 06:51:28;;;;;;;1.07;0.90;;;19.30;99.90;;;;;;5113338;28;20435;-78
2023/08/11 06:53:55;;;;;;;1.70;1.60;;;19.40;99.90;;;;;;5113244;28;20463;-78
2023/08/11 06:56:21;;;;;;;1.80;1.30;;;19.70;99.90;;;;;;5113229;28;20509;-78
2023/08/11 06:58:48;;;;;;;1.67;1.57;;;19.80;99.90;;;;;;5113288;28;20443;-78
2023/08/11 07:01:17;;;;;;;1.30;1.20;;;19.90;99.90;;;;;;5113300;28;20466;-79
2023/08/11 07:03:44;;;;;;;1.10;1.00;;;20.00;99.90;;;;;;5112801;28;20502;-79
2023/08/11 07:06:11;;;;;;;1.50;1.40;;;20.10;99.90;;;;;;5112888;28;20461;-78
2023/08/11 07:08:40;;;;;;;1.93;1.70;;;20.20;99.90;;;;;;5112891;28;20448;-79
2023/08/11 07:11:07;;;;;;;2.33;1.60;;;20.30;99.90;;;;;;5114817;28;20492;-79
2023/08/11 07:13:33;;;;;;;2.47;1.60;;;20.40;99.90;;;;;;5116778;28;20444;-79
2023/08/11 07:16:01;;;;;;;1.13;1.03;;;20.60;99.90;;;;;;5116859;28;20449;-79
2023/08/11 07:18:28;;;;;;;2.10;1.43;;;20.70;99.90;;;;;;5116763;28;20434;-79
2023/08/11 07:20:55;;;;;;;3.20;1.60;;;20.80;99.90;;;;;;5116588;27;20497;-79
2023/08/11 07:23:21;;;;;;;2.33;1.60;;;21.00;99.90;;;;;;5116726;28;20438;-79
2023/08/11 07:25:49;;;;;;;1.90;1.80;;;21.20;99.90;;;;;;5116239;28;20462;-79
2023/08/11 07:28:16;;;;;;;1.90;1.23;;;21.30;99.90;;;;;;5116572;28;20446;-79
2023/08/11 07:30:43;;;;;;;1.57;1.27;;;21.40;99.90;;;;;;5116597;28;20438;-79
2023/08/11 07:33:10;;;;;;;2.80;1.43;;;21.50;99.90;;;;;;5116503;28;20438;-79
2023/08/11 07:35:36;;;;;;;1.83;0.90;;;21.70;99.90;;;;;;5116177;28;20453;-79
2023/08/11 07:38:04;;;;;;;1.07;1.00;;;21.80;99.90;;;;;;5116334;28;20510;-79
2023/08/11 07:40:31;;;;;;;3.07;1.70;;;21.90;99.90;;;;;;5116386;27;20446;-79
2023/08/11 07:43:00;;;;;;;3.37;1.23;;;22.00;99.90;;;;;;5116005;28;20950;-79
2023/08/11 07:45:26;;;;;;;1.60;1.50;;;22.10;99.90;;;;;;5116194;27;20455;-79
2023/08/11 07:47:53;;;;;;;2.20;1.50;;;22.20;99.90;;;;;;5116217;28;20442;-79
2023/08/11 07:50:20;;;;;;;1.40;1.03;;;22.30;99.90;;;;;;5116274;28;20484;-79
2023/08/11 07:52:47;;;;;;;14.70;1.83;;;22.40;99.90;;;;;;5115792;28;20441;-79
2023/08/11 07:55:14;;;;;;;2.47;1.57;;;22.60;99.90;;;;;;5115991;28;20471;-79
2023/08/11 07:57:41;;;;;;;1.60;1.50;;;22.70;99.90;;;;;;5115950;28;20216;-79
2023/08/11 08:00:16;;;;;;;4.10;1.53;;;22.90;99.90;;;;;;5115951;28;20257;-79
2023/08/11 08:02:43;;;;;;;2.53;2.00;;;23.20;99.90;;;;;;5115677;28;20477;-79
2023/08/11 08:05:10;;;;;;;1.42;1.33;;;23.20;99.90;;;;;;5115782;28;20221;-79
2023/08/11 08:07:37;;;;;;;2.90;1.37;;;23.30;99.90;;;;;;5115824;28;20621;-79
2023/08/11 08:10:08;;;;;;;2.78;1.50;;;23.40;99.90;;;;;;5115873;28;20193;-79
2023/08/11 08:12:35;;;;;;;1.50;1.40;;;23.60;99.90;;;;;;5115762;28;20557;-79
2023/08/11 08:15:04;;;;;;;1.27;1.17;;;23.80;99.90;;;;;;5115589;28;20217;-79
2023/08/11 08:17:32;;;;;;;1.42;1.30;;;23.90;99.90;;;;;;5115561;28;20266;-79
2023/08/11 08:19:59;;;;;;;1.92;1.70;;;24.10;99.90;;;;;;5115609;28;20577;-79
2023/08/11 08:22:26;;;;;;;1.20;1.10;;;24.20;99.90;;;;;;5115518;28;20201;-79
2023/08/11 08:24:53;;;;;;;2.42;1.48;;;24.40;99.90;;;;;;5115179;28;20225;-79
2023/08/11 08:27:24;;;;;;;1.58;1.40;;;24.40;99.90;;;;;;5116230;28;20196;-79
2023/08/11 08:29:51;;;;;;;1.92;1.25;;;24.40;99.90;;;;;;5115427;28;20185;-79
2023/08/11 08:32:18;;;;;;;1.38;1.27;;;24.50;99.90;;;;;;5115377;27;20200;-79
2023/08/11 08:34:47;;;;;;;1.73;1.63;;;24.60;99.90;;;;;;5115540;27;20254;-88
2023/08/11 08:37:14;;;;;;;1.40;1.30;;;24.80;99.90;;;;;;5115146;28;20270;-86
2023/08/11 08:39:41;;;;;;;1.75;1.65;;;24.90;99.90;;;;;;5115704;28;20208;-87
2023/08/11 08:42:08;;;;;;;1.50;1.40;;;25.10;99.90;;;;;;5115490;28;20207;-87
2023/08/11 08:44:36;;;;;;;1.58;1.48;;;25.10;99.90;;;;;;5115259;28;20709;-88
2023/08/11 08:47:05;;;;;;;1.48;1.23;;;25.10;99.90;;;;;;5115140;28;20670;-87
2023/08/11 08:49:32;;;;;;;1.30;1.17;;;25.10;99.90;;;;;;5115546;28;20212;-88
2023/08/11 08:52:01;;;;;;;1.65;1.35;;;25.10;99.90;;;;;;5115422;28;20634;-87
2023/08/11 08:54:29;;;;;;;1.23;1.05;;;25.20;99.90;;;;;;5115096;28;20227;-88
2023/08/11 08:56:57;;;;;;;1.30;1.20;;;25.40;99.90;;;;;;5115239;27;20216;-87
2023/08/11 08:59:24;;;;;;;1.23;1.10;;;25.50;99.90;;;;;;5115212;28;20201;-87
2023/08/11 09:01:51;;;;;;;1.60;1.30;;;25.70;99.90;;;;;;5115674;28;20204;-87
2023/08/11 09:04:21;;;;;;;1.63;1.52;;;25.60;99.90;;;;;;5114445;28;20240;-87
2023/08/11 09:06:48;;;;;;;1.27;1.15;;;25.80;99.90;;;;;;5115016;27;20200;-87
2023/08/11 09:09:16;;;;;;;2.00;1.60;;;26.10;99.90;;;;;;5114677;28;20209;-88
2023/08/11 09:11:43;;;;;;;1.45;1.35;;;26.20;99.90;;;;;;5114674;28;20212;-88
2023/08/11 09:14:11;;;;;;;1.65;1.20;;;26.20;99.90;;;;;;5114690;28;20225;-88
2023/08/11 09:16:39;;;;;;;1.10;1.10;;;26.40;99.90;;;;;;5115350;28;20193;-88
2023/08/11 09:19:08;;;;;;;1.30;1.20;;;26.50;99.90;;;;;;5114405;28;20689;-86
2023/08/11 09:21:35;;;;;;;2.35;0.93;;;26.60;99.90;;;;;;5114112;28;20665;-86
2023/08/11 09:24:02;;;;;;;1.20;1.02;;;26.60;99.90;;;;;;5114057;28;20220;-86
2023/08/11 09:26:30;;;;;;;1.50;1.40;;;26.80;99.90;;;;;;5114387;28;20197;-85
2023/08/11 09:28:57;;;;;;;1.35;0.98;;;26.90;99.90;;;;;;5114286;28;20183;-85
2023/08/11 09:31:24;;;;;;;1.65;1.30;;;26.90;99.90;;;;;;5114291;28;20204;-86
2023/08/11 09:33:52;;;;;;;1.17;1.10;;;27.10;99.90;;;;;;5113765;28;20196;-85
2023/08/11 09:36:20;;;;;;;1.55;1.05;;;27.20;99.90;;;;;;5114201;28;20205;-86
2023/08/11 09:38:48;;;;;;;1.20;1.20;;;27.30;99.90;;;;;;5114173;28;20217;-85
2023/08/11 09:41:15;;;;;;;1.00;1.00;;;27.50;99.90;;;;;;5113795;28;20204;-85
2023/08/11 09:43:48;;;;;;;1.65;1.02;;;27.60;99.90;;;;;;5114073;28;20216;-86
2023/08/11 09:46:15;;;;;;;1.13;1.00;;;27.60;99.90;;;;;;5113857;28;20618;-86
2023/08/11 09:48:42;;;;;;;1.20;1.10;;;27.70;99.90;;;;;;5113841;28;20207;-85
2023/08/11 09:51:11;;;;;;;1.08;1.00;;;27.80;99.90;;;;;;5113725;28;20665;-85
2023/08/11 09:53:40;;;;;;;4.07;1.55;;;27.80;99.90;;;;;;5113914;28;20278;-85
2023/08/11 09:56:07;;;;;;;1.98;1.20;;;27.90;99.90;;;;;;5113759;28;20184;-86
2023/08/11 09:58:38;;;;;;;1.15;1.10;;;27.90;99.90;;;;;;5113763;28;20240;-86
2023/08/11 10:01:08;;;;;;;1.30;1.20;;;28.00;99.90;;;;;;5113869;28;20189;-85
2023/08/11 10:03:47;;;;;;;1.17;1.00;;;28.10;99.90;;;;;;5113298;28;20239;-85
2023/08/11 10:06:20;;;;;;;1.00;1.00;;;28.00;99.90;;;;;;5113894;28;20224;-86
2023/08/11 10:08:48;;;;;;;1.00;1.00;;;28.20;99.90;;;;;;5113884;28;20184;-86
2023/08/11 10:11:15;;;;;;;1.00;1.00;;;28.40;99.90;;;;;;5113992;28;20205;-86
2023/08/11 10:13:43;;;;;;;0.98;0.88;;;28.50;99.90;;;;;;5113786;28;20568;-86
2023/08/11 10:16:12;;;;;;;1.10;1.00;;;28.70;99.90;;;;;;5113833;28;20205;-86
2023/08/11 10:18:40;;;;;;;1.25;1.15;;;28.90;99.90;;;;;;5113419;28;20208;-86
2023/08/11 10:21:07;;;;;;;1.15;1.08;;;28.90;99.90;;;;;;5113803;28;20207;-86
2023/08/11 10:23:35;;;;;;;1.48;1.20;;;28.90;99.90;;;;;;5113379;28;20218;-86
2023/08/11 10:26:02;;;;;;;1.48;1.08;;;29.00;99.90;;;;;;5113434;28;20214;-87
2023/08/11 10:28:29;;;;;;;1.40;1.30;;;28.80;99.90;;;;;;5113708;28;20204;-86
2023/08/11 10:30:57;;;;;;;0.80;0.80;;;28.50;99.90;;;;;;5113447;28;20205;-86
2023/08/11 10:33:29;;;;;;;1.15;1.05;;;28.30;99.90;;;;;;5113755;28;20228;-87
2023/08/11 10:35:58;;;;;;;1.27;1.02;;;28.20;99.90;;;;;;5113475;28;20214;-86
2023/08/11 10:38:26;;;;;;;1.40;1.30;;;28.20;99.90;;;;;;5113536;28;20216;-86
2023/08/11 10:41:00;;;;;;;0.82;0.82;;;28.20;99.90;;;;;;5113642;28;20668;-86
2023/08/11 10:43:31;;;;;;;1.30;0.90;;;28.40;99.90;;;;;;5113705;28;20186;-86
2023/08/11 10:46:13;;;;;;;1.30;1.13;;;28.60;99.80;;;;;;5115412;28;20225;-88
2023/08/11 10:48:42;;;;;;;1.52;1.23;;;28.70;99.80;;;;;;5117417;28;20186;-86
2023/08/11 10:51:26;;;;;;;1.30;1.17;;;28.70;99.90;;;;;;5117385;27;20199;-87
2023/08/11 10:53:55;;;;;;;0.90;0.90;;;28.80;99.90;;;;;;5117188;27;20227;-83
2023/08/11 10:56:28;;;;;;;1.35;1.25;;;28.90;99.90;;;;;;5117490;28;20240;-86
2023/08/11 10:59:08;;;;;;;1.20;0.95;;;29.20;99.10;;;;;;5118326;28;20272;-87
2023/08/11 11:01:36;;;;;;;0.90;0.90;;;29.60;97.70;;;;;;5117381;28;20195;-86
2023/08/11 11:04:07;;;;;;;1.55;1.02;;;30.10;96.10;;;;;;5116694;28;20236;-86
2023/08/11 11:06:35;;;;;;;1.98;1.48;;;30.60;95.60;;;;;;5117210;28;20186;-87
2023/08/11 11:09:03;;;;;;;1.02;1.02;;;30.80;95.00;;;;;;5117282;28;20209;-87
2023/08/11 11:11:30;;;;;;;1.10;1.05;;;30.70;94.80;;;;;;5116909;28;20236;-86
2023/08/11 11:13:57;;;;;;;1.10;1.00;;;30.40;94.90;;;;;;5116851;27;20719;-87
2023/08/11 11:16:24;;;;;;;1.30;1.00;;;30.30;95.00;;;;;;5116854;28;20212;-87
2023/08/11 11:18:51;;;;;;;1.13;1.13;;;30.00;95.40;;;;;;5117073;28;20226;-87
2023/08/11 11:21:20;;;;;;;1.63;1.10;;;29.90;94.40;;;;;;5116795;28;20567;-87
2023/08/11 11:23:47;;;;;;;0.85;0.85;;;29.70;94.90;;;;;;5116549;28;20668;-86
2023/08/11 11:26:22;;;;;;;2.50;0.88;;;29.60;95.50;;;;;;5117102;27;20689;-87
2023/08/11 11:28:50;;;;;;;3.08;1.00;;;29.40;96.30;;;;;;5116860;28;20180;-88
2023/08/11 11:31:17;;;;;;;1.10;1.00;;;29.30;96.30;;;;;;5116974;28;20200;-87
2023/08/11 11:33:45;;;;;;;1.02;1.02;;;29.20;96.20;;;;;;5116630;28;20195;-87
2023/08/11 11:36:12;;;;;;;1.77;0.82;;;29.30;95.60;;;;;;5116803;28;20728;-87
2023/08/11 11:38:41;;;;;;;0.98;0.82;;;29.40;95.30;;;;;;5116381;28;20216;-87
2023/08/11 11:41:10;;;;;;;0.95;0.85;;;29.40;94.70;;;;;;5116728;28;20229;-87
2023/08/11 11:43:37;;;;;;;0.80;0.80;;;29.40;95.50;;;;;;5116500;28;20298;-87
2023/08/11 11:46:11;;;;;;;0.80;0.80;;;29.40;94.20;;;;;;5116585;28;20208;-87
2023/08/11 11:48:38;;;;;;;1.20;1.10;;;29.30;94.80;;;;;;5116346;28;20216;-88
2023/08/11 11:51:05;;;;;;;1.13;1.02;;;29.30;94.40;;;;;;5116200;28;20664;-88
2023/08/11 11:53:32;;;;;;;1.45;1.30;;;29.30;94.30;;;;;;5116578;28;20576;-87
2023/08/11 11:56:00;;;;;;;1.00;1.00;;;29.30;94.30;;;;;;5115989;27;20208;-87
2023/08/11 11:58:27;;;;;;;1.58;1.05;;;29.30;94.30;;;;;;5116576;28;20215;-88
2023/08/11 12:00:55;;;;;;;0.80;0.80;;;29.30;93.60;;;;;;5116563;28;20202;-88
2023/08/11 12:03:23;;;;;;;1.00;1.00;;;29.30;93.70;;;;;;5115969;28;20260;-87
2023/08/11 12:05:50;;;;;;;0.95;0.93;;;29.20;94.00;;;;;;5116205;28;20222;-88
2023/08/11 12:08:23;;;;;;;3.30;0.90;;;29.10;94.50;;;;;;5116007;28;20217;-87
2023/08/11 12:10:50;;;;;;;1.20;1.10;;;29.10;95.00;;;;;;5116694;28;20217;-88
2023/08/11 12:13:19;;;;;;;0.88;0.88;;;29.10;93.60;;;;;;5116109;28;20209;-88
2023/08/11 12:15:48;;;;;;;1.23;1.00;;;29.10;93.70;;;;;;5116083;28;20228;-87
2023/08/11 12:18:15;;;;;;;0.75;0.75;;;29.00;94.40;;;;;;5115892;28;20239;-88
2023/08/11 12:20:42;;;;;;;1.00;1.00;;;28.90;94.90;;;;;;5115729;28;20663;-88
2023/08/11 12:23:09;;;;;;;0.90;0.90;;;28.80;95.40;;;;;;5116108;28;20208;-88
2023/08/11 12:25:35;;;;;;;2.55;0.98;;;28.90;94.90;;;;;;5116016;28;20218;-88
2023/08/11 12:28:02;;;;;;;1.05;0.90;;;28.90;93.70;;;;;;5115841;28;20209;-87
2023/08/11 12:30:31;;;;;;;1.00;0.90;;;28.80;93.80;;;;;;5116163;28;20296;-87
2023/08/11 12:32:57;;;;;;;1.40;1.02;;;28.60;94.60;;;;;;5115732;28;20205;-88
2023/08/11 12:35:24;;;;;;;1.20;1.05;;;28.50;94.40;;;;;;5115354;28;20255;-87
2023/08/11 12:37:52;;;;;;;1.27;1.13;;;28.40;94.70;;;;;;5115655;28;20568;-88
2023/08/11 12:40:21;;;;;;;1.35;0.90;;;28.40;95.20;;;;;;5115596;28;20208;-87
2023/08/11 12:42:47;;;;;;;0.93;0.93;;;28.30;94.90;;;;;;5115540;28;20185;-88
2023/08/11 12:45:14;;;;;;;1.00;1.00;;;28.30;95.20;;;;;;5115498;28;20232;-87
2023/08/11 12:47:42;;;;;;;1.05;1.02;;;28.20;95.00;;;;;;5115113;28;20696;-88
2023/08/11 12:50:10;;;;;;;1.73;0.90;;;28.20;95.10;;;;;;5115414;28;20571;-87